Time;durP1;ratioP1;P1;durP2;ratioP2;P2;SDS_P1;SDS_P2;PMS_P1;PMS_P2;Temp;Humidity;BMP_temperature;BMP_pressure;BME280_temperature;BME280_humidity;BME280_pressure;Samples;Min_cycle;Max_cycle;Signal;HPM_P1;HPM_P2
2022/12/23 01:43:48;;;;;;;41.80;25.50;;;;;;;0.76;93.29;99001.15;99911;1319;557575;-60
2022/12/23 01:46:15;;;;;;;40.00;22.30;;;;;;;0.92;92.84;98998.33;105489;1315;107096;-61
2022/12/23 01:48:44;;;;;;;38.00;22.80;;;;;;;0.98;92.81;99001.51;105731;1315;137819;-61
2022/12/23 01:51:13;;;;;;;36.10;21.00;;;;;;;1.03;92.75;99001.14;106074;1312;22224;-61
2022/12/23 01:53:45;;;;;;;35.20;20.80;;;;;;;1.08;92.86;99005.11;106617;1306;22135;-61
2022/12/23 01:56:15;;;;;;;33.40;20.90;;;;;;;1.11;92.63;99000.06;106466;1306;138705;-61
2022/12/23 01:58:45;;;;;;;31.90;19.90;;;;;;;1.14;92.73;98999.65;106707;1285;22189;-60
2022/12/23 02:03:59;;;;;;;37.20;20.70;;;;;;;1.17;92.56;98994.75;106598;1299;22305;-59
2022/12/23 02:09:24;;;;;;;35.80;19.20;;;;;;;1.23;92.49;98993.80;106681;1294;22303;-58
2022/12/23 02:12:20;;;;;;;33.40;19.90;;;;;;;1.25;92.40;98996.32;106642;1300;22960;-59
2022/12/23 02:18:14;;;;;;;30.00;18.80;;;;;;;1.28;92.00;98990.05;106655;1298;22126;-59
2022/12/23 02:21:10;;;;;;;34.70;19.80;;;;;;;1.28;91.97;98989.34;106523;1305;137761;-60
2022/12/23 02:23:51;;;;;;;29.10;19.70;;;;;;;1.28;91.95;98981.04;106690;1298;22238;-59
2022/12/23 02:27:10;;;;;;;34.40;19.90;;;;;;;1.31;91.95;98988.16;106584;1306;138436;-59
2022/12/23 02:29:55;;;;;;;34.50;19.30;;;;;;;1.34;91.91;98983.60;106208;1294;23267;-59
2022/12/23 02:32:27;;;;;;;34.10;20.10;;;;;;;1.32;91.79;98972.75;106021;1311;137392;-59
2022/12/23 02:34:55;;;;;;;34.70;21.10;;;;;;;1.37;91.61;98979.14;106079;1310;22264;-59
2022/12/23 02:37:53;;;;;;;31.30;20.90;;;;;;;1.35;91.65;98975.02;105967;1306;137150;-59
2022/12/23 02:40:28;;;;;;;32.10;19.30;;;;;;;1.33;91.46;98965.52;106143;1309;22352;-59
2022/12/23 02:43:00;;;;;;;34.50;20.40;;;;;;;1.31;91.48;98968.58;106128;1309;137891;-59
2022/12/23 02:45:26;;;;;;;36.20;23.00;;;;;;;1.31;91.46;98975.23;106068;1309;22371;-59
2022/12/23 02:47:55;;;;;;;38.40;21.60;;;;;;;1.29;91.27;98970.74;106170;1310;22219;-58
2022/12/23 02:50:30;;;;;;;38.30;22.20;;;;;;;1.26;91.28;98969.69;105982;1303;138710;-59
2022/12/23 02:52:58;;;;;;;40.60;24.10;;;;;;;1.24;91.35;98972.66;106054;1311;22193;-59
2022/12/23 02:55:27;;;;;;;35.60;20.70;;;;;;;1.24;91.41;98971.76;105885;1300;138278;-59
2022/12/23 02:57:54;;;;;;;37.30;22.30;;;;;;;1.25;91.42;98972.17;106008;1312;22410;-59
2022/12/23 03:00:22;;;;;;;38.90;22.20;;;;;;;1.25;91.39;98970.39;106059;1303;22178;-59
2022/12/23 03:02:48;;;;;;;34.50;21.00;;;;;;;1.23;91.32;98970.27;106043;1293;137743;-58
2022/12/23 03:05:22;;;;;;;;;;;;;;;1.22;91.36;98970.96;106343;1283;22384;-59
2022/12/23 03:07:49;;;;;;;35.30;20.80;;;;;;;1.22;91.61;98974.20;106508;1291;123009;-59
2022/12/23 03:10:35;;;;;;;40.50;22.40;;;;;;;1.22;91.32;98975.27;106522;1291;22734;-59
2022/12/23 03:13:14;;;;;;;40.70;21.70;;;;;;;1.18;91.35;98975.27;106451;1306;137573;-59
2022/12/23 03:15:55;;;;;;;45.00;23.20;;;;;;;1.16;91.35;98978.95;106526;1297;22903;-59
2022/12/23 03:18:28;;;;;;;41.60;23.70;;;;;;;1.15;91.39;98974.67;106450;1308;22125;-59
2022/12/23 03:21:13;;;;;;;38.70;20.10;;;;;;;1.15;91.48;98982.89;106393;1298;138481;-58
2022/12/23 03:23:52;;;;;;;37.40;22.30;;;;;;;1.17;91.65;98975.68;106526;1297;22326;-59
2022/12/23 03:26:31;;;;;;;39.40;21.60;;;;;;;1.17;91.54;98964.34;106422;1305;138226;-60
2022/12/23 03:29:12;;;;;;;37.00;21.80;;;;;;;1.17;91.57;98961.64;106505;1306;22042;-59
2022/12/23 03:31:39;;;;;;;38.40;22.30;;;;;;;1.16;91.63;98965.70;106425;1308;138123;-60
2022/12/23 03:34:07;;;;;;;;;;;;;;;1.15;91.48;98959.86;106516;1305;22409;-59
2022/12/23 03:36:40;;;;;;;42.00;21.30;;;;;;;1.13;91.60;98967.95;106439;1291;22317;-59
2022/12/23 03:39:09;;;;;;;41.50;22.20;;;;;;;1.09;91.64;98962.23;106507;1299;22115;-59
2022/12/23 03:41:39;;;;;;;39.90;22.70;;;;;;;1.12;91.71;98976.92;106513;1305;22194;-59
2022/12/23 03:44:12;;;;;;;38.70;22.80;;;;;;;1.12;91.71;98975.52;106319;1308;138913;-59
2022/12/23 03:46:41;;;;;;;38.30;24.00;;;;;;;1.12;91.64;98971.02;106491;1305;23310;-59
2022/12/23 03:49:12;;;;;;;38.60;22.20;;;;;;;1.10;91.49;98968.16;106377;1305;138144;-59
2022/12/23 03:51:51;;;;;;;38.70;23.10;;;;;;;1.09;91.66;98972.42;106436;1298;23582;-59
2022/12/23 03:54:21;;;;;;;42.30;24.20;;;;;;;1.09;91.66;98975.23;106387;1296;22227;-59
2022/12/23 03:57:00;;;;;;;40.20;22.70;;;;;;;1.07;91.55;98965.90;106424;1305;137746;-60
2022/12/23 03:59:31;;;;;;;42.30;23.40;;;;;;;1.06;91.50;98960.08;106373;1306;22132;-59
2022/12/23 04:02:15;;;;;;;38.90;23.10;;;;;;;1.01;91.56;98951.14;106345;1305;137589;-59
2022/12/23 04:04:50;;;;;;;38.30;22.10;;;;;;;1.01;91.47;98955.97;106558;1305;23217;-59
2022/12/23 04:07:29;;;;;;;44.00;24.40;;;;;;;0.99;91.42;98953.30;106390;1293;137819;-58
2022/12/23 04:09:56;;;;;;;42.60;22.80;;;;;;;0.96;91.58;98945.84;106469;1305;22114;-59
2022/12/23 04:12:23;;;;;;;38.00;23.10;;;;;;;0.95;91.68;98946.13;106540;1305;22228;-59
2022/12/23 04:14:50;;;;;;;41.40;24.10;;;;;;;0.94;91.75;98945.67;106344;1308;137657;-59
2022/12/23 04:17:16;;;;;;;40.40;21.80;;;;;;;0.91;91.65;98950.54;106488;1305;22302;-59
2022/12/23 04:19:46;;;;;;;43.50;23.40;;;;;;;0.93;91.78;98946.04;106416;1305;139258;-59
2022/12/23 04:22:13;;;;;;;57.80;25.30;;;;;;;0.95;91.83;98950.63;106594;1291;22845;-59
2022/12/23 04:24:40;;;;;;;45.20;25.50;;;;;;;0.95;91.80;98951.98;106409;1305;137848;-59
2022/12/23 04:27:08;;;;;;;;;;;;;;;0.98;91.94;98960.90;106573;1297;22368;-59
2022/12/23 04:29:35;;;;;;;44.20;23.30;;;;;;;0.99;91.92;98968.74;106506;1300;22199;-59
2022/12/23 04:32:01;;;;;;;47.80;26.50;;;;;;;0.99;91.76;98971.13;106423;1306;137771;-59
2022/12/23 04:34:28;;;;;;;45.70;24.60;;;;;;;0.98;91.81;98980.41;106538;1297;22409;-59
2022/12/23 04:36:55;;;;;;;45.70;25.40;;;;;;;0.93;91.72;98973.20;106440;1305;137278;-60
2022/12/23 04:39:22;;;;;;;46.00;26.60;;;;;;;0.90;91.72;98981.77;106528;1296;22174;-59
2022/12/23 04:41:48;;;;;;;42.80;25.50;;;;;;;0.89;91.64;98993.08;106531;1305;22168;-60
2022/12/23 04:44:15;;;;;;;49.60;26.10;;;;;;;0.88;91.88;99003.89;106391;1305;139575;-59
2022/12/23 04:46:42;;;;;;;37.80;22.70;;;;;;;0.88;91.85;99005.13;106598;1296;23269;-59
2022/12/23 04:49:09;;;;;;;;;;;;;;;0.87;91.74;99005.25;106446;1305;139001;-59
2022/12/23 04:51:35;;;;;;;37.90;23.60;;;;;;;0.86;91.97;99003.62;106498;1291;22136;-60
2022/12/23 04:54:02;;;;;;;45.50;26.40;;;;;;;0.86;92.20;99003.45;106532;1305;22142;-59
2022/12/23 04:56:29;;;;;;;;;;;;;;;0.86;92.12;98999.58;106428;1299;139129;-59
2022/12/23 04:58:55;;;;;;;46.00;25.20;;;;;;;0.86;92.00;98991.87;106530;1305;22220;-59
2022/12/23 05:01:22;;;;;;;49.80;25.20;;;;;;;0.86;92.24;98994.80;106455;1305;139515;-59
2022/12/23 05:03:49;;;;;;;46.30;26.00;;;;;;;0.84;92.41;98992.48;106554;1305;22230;-59
2022/12/23 05:06:16;;;;;;;47.90;24.90;;;;;;;0.82;92.27;98994.55;106544;1290;22298;-59
2022/12/23 05:08:42;;;;;;;55.30;27.70;;;;;;;0.80;92.25;98994.67;106466;1305;137616;-59
2022/12/23 19:59:53;;;;;;;84.70;50.30;;;;;;;1.29;97.48;98986.67;100006;1317;559974;-64
2022/12/23 20:27:36;;;;;;;84.50;49.30;;;;;;;2.12;95.44;98981.32;100027;1321;557446;-62
2022/12/23 20:30:04;;;;;;;83.30;48.60;;;;;;;2.25;94.72;98975.11;105017;1318;138302;-63
2022/12/23 20:32:31;;;;;;;85.00;47.10;;;;;;;2.22;94.45;98967.07;105849;1304;22181;-64
2022/12/23 20:34:57;;;;;;;78.70;44.40;;;;;;;2.20;94.20;98967.83;105630;1297;139520;-63
2022/12/23 20:37:24;;;;;;;;;;;;;;;2.17;94.20;98970.52;105796;1315;22374;-63
2022/12/23 20:39:52;;;;;;;84.90;45.70;;;;;;;2.18;94.03;98971.52;104577;1311;26299;-62
2022/12/23 21:00:45;;;;;;;90.60;52.70;;;;;;;2.61;92.45;98963.08;99560;1327;558532;-59
2022/12/23 21:03:11;;;;;;;;;;;;;;;2.68;91.58;98951.89;100827;1301;103090;-59
2022/12/23 21:05:38;;;;;;;82.00;45.40;;;;;;;2.67;91.25;98944.48;100938;1310;124964;-61
2022/12/23 21:08:05;;;;;;;;;;;;;;;2.61;91.45;98937.27;101114;1307;22937;-61
2022/12/23 21:10:34;;;;;;;75.00;42.50;;;;;;;2.57;91.15;98938.25;100954;1310;124193;-61
2022/12/23 21:13:02;;;;;;;77.50;42.30;;;;;;;2.54;91.13;98943.25;104794;1331;22224;-59
2022/12/23 21:15:32;;;;;;;80.80;43.30;;;;;;;2.51;91.23;98935.20;105439;1318;22124;-60
2022/12/23 21:17:58;;;;;;;78.30;42.70;;;;;;;2.49;91.20;98933.55;105350;1317;138898;-60
2022/12/23 21:20:25;;;;;;;;;;;;;;;2.48;91.20;98943.28;105530;1306;22351;-60
2022/12/23 21:22:52;;;;;;;73.60;40.40;;;;;;;2.47;90.95;98939.85;105469;1309;125066;-60
2022/12/23 21:25:19;;;;;;;75.10;41.90;;;;;;;2.44;90.94;98938.03;105470;1293;22371;-60
2022/12/23 21:27:45;;;;;;;80.20;44.90;;;;;;;2.43;90.75;98939.05;105481;1316;22969;-60
2022/12/23 21:30:12;;;;;;;85.20;45.90;;;;;;;2.41;90.74;98946.29;105360;1300;137891;-60
2022/12/23 21:32:39;;;;;;;87.00;47.20;;;;;;;2.38;90.62;98947.02;105468;1302;22216;-60
2022/12/23 21:35:06;;;;;;;;;;;;;;;2.37;90.70;98956.27;105394;1317;137532;-60
2022/12/23 21:37:33;;;;;;;79.60;41.60;;;;;;;2.36;90.61;98960.38;105469;1302;22221;-61
2022/12/23 21:40:00;;;;;;;78.20;42.20;;;;;;;2.35;90.60;98961.50;105468;1309;22193;-63
2022/12/23 21:42:26;;;;;;;;;;;;;;;2.33;90.64;98958.29;105440;1319;137487;-63
2022/12/23 21:44:53;;;;;;;74.30;39.10;;;;;;;2.33;90.64;98962.63;105356;1309;22290;-63
2022/12/23 21:47:20;;;;;;;77.00;41.70;;;;;;;2.31;90.48;98967.59;105279;1309;138085;-62
2022/12/23 21:49:46;;;;;;;74.10;40.10;;;;;;;2.29;90.52;98963.42;106364;1298;22373;-62
2022/12/23 21:52:13;;;;;;;77.90;42.10;;;;;;;2.27;90.46;98954.84;106387;1302;22238;-62
2022/12/23 21:54:40;;;;;;;83.80;47.00;;;;;;;2.23;90.39;98956.68;106273;1308;137809;-62
2022/12/23 21:57:07;;;;;;;82.50;43.70;;;;;;;2.19;90.50;98958.36;106262;1299;23643;-62
2022/12/23 21:59:33;;;;;;;94.40;51.10;;;;;;;2.16;90.54;98959.05;106309;1307;138207;-57
2022/12/23 22:02:01;;;;;;;94.50;49.40;;;;;;;2.14;90.61;98954.65;106384;1308;23028;-60
2022/12/23 22:04:28;;;;;;;;;;;;;;;2.13;90.79;98953.66;106328;1306;138178;-60
2022/12/23 22:06:54;;;;;;;78.20;42.00;;;;;;;2.13;90.86;98952.75;106365;1307;22162;-60
2022/12/23 22:09:21;;;;;;;80.20;42.60;;;;;;;2.14;91.12;98952.95;106392;1306;22337;-60
2022/12/23 22:11:48;;;;;;;77.40;42.10;;;;;;;2.16;91.13;98946.45;106280;1292;138486;-60
2022/12/23 22:14:16;;;;;;;73.10;40.10;;;;;;;2.17;91.20;98944.14;106363;1307;23372;-60
2022/12/23 22:16:43;;;;;;;77.60;42.00;;;;;;;2.19;91.14;98944.84;106109;1308;139295;-60
2022/12/23 22:19:10;;;;;;;;;;;;;;;2.19;90.93;98950.42;106415;1308;23152;-60
2022/12/23 22:21:38;;;;;;;75.90;39.90;;;;;;;2.18;91.08;98945.17;106426;1284;23000;-60
2022/12/23 22:24:05;;;;;;;86.30;41.90;;;;;;;2.18;91.00;98944.18;106281;1292;138185;-60
2022/12/23 22:26:32;;;;;;;81.50;43.30;;;;;;;2.18;90.99;98943.48;106419;1284;23243;-59
2022/12/23 22:29:00;;;;;;;71.30;40.50;;;;;;;2.17;91.06;98943.23;106273;1294;138372;-60
2022/12/23 22:31:37;;;;;;;74.10;42.20;;;;;;;2.15;90.78;98939.27;106411;1294;22270;-60
2022/12/23 22:34:04;;;;;;;70.80;38.60;;;;;;;2.12;90.80;98934.77;106391;1292;22168;-60
2022/12/23 22:36:30;;;;;;;;;;;;;;;2.11;90.97;98935.11;106265;1307;137919;-60
2022/12/23 22:38:58;;;;;;;75.90;39.80;;;;;;;2.11;91.04;98938.26;106419;1292;23204;-59
2022/12/23 22:41:26;;;;;;;73.80;40.60;;;;;;;2.09;91.17;98943.10;106319;1308;137701;-59
2022/12/23 22:43:53;;;;;;;69.70;38.10;;;;;;;2.09;91.19;98946.86;106433;1308;22956;-59
2022/12/23 22:46:20;;;;;;;72.50;40.30;;;;;;;2.08;91.35;98940.42;106419;1297;22219;-60
2022/12/23 22:48:47;;;;;;;76.30;42.20;;;;;;;2.08;91.29;98936.28;106270;1304;137564;-60
2022/12/23 22:51:16;;;;;;;75.00;40.40;;;;;;;2.09;91.52;98935.41;106458;1300;22230;-60
2022/12/23 22:53:42;;;;;;;75.50;41.20;;;;;;;2.11;91.60;98935.14;106299;1307;137800;-60
2022/12/23 22:56:10;;;;;;;75.30;41.50;;;;;;;2.12;91.67;98936.52;106432;1307;22122;-60
2022/12/23 22:58:37;;;;;;;75.90;42.30;;;;;;;2.13;91.67;98942.58;106304;1292;136958;-60
2022/12/23 23:01:04;;;;;;;;;;;;;;;2.15;91.64;98942.66;106393;1294;23565;-60
2022/12/23 23:03:31;;;;;;;68.40;37.70;;;;;;;2.17;91.66;98940.21;106402;1308;22405;-60
2022/12/23 23:06:05;;;;;;;;;;;;;;;2.19;91.56;98939.26;106326;1308;138005;-60
2022/12/23 23:08:32;;;;;;;72.40;38.10;;;;;;;2.20;91.64;98939.95;106357;1298;22139;-60
2022/12/23 23:11:00;;;;;;;66.40;37.90;;;;;;;2.21;91.63;98935.52;106311;1307;138598;-60
2022/12/23 23:13:29;;;;;;;68.80;37.20;;;;;;;2.23;91.53;98934.36;106373;1301;22208;-60
2022/12/23 23:15:56;;;;;;;67.60;37.10;;;;;;;2.25;91.56;98942.65;106442;1306;22154;-60
2022/12/23 23:18:23;;;;;;;71.80;38.30;;;;;;;2.26;91.54;98942.40;106331;1306;138950;-60
2022/12/23 23:20:49;;;;;;;74.00;40.40;;;;;;;2.28;91.53;98944.33;106465;1300;22223;-60
2022/12/23 23:23:16;;;;;;;78.30;41.90;;;;;;;2.30;91.35;98944.86;106306;1306;137535;-60
2022/12/23 23:25:43;;;;;;;87.40;43.80;;;;;;;2.29;91.51;98942.63;106399;1307;22223;-60
2022/12/23 23:28:10;;;;;;;86.20;43.70;;;;;;;2.28;91.36;98948.72;106413;1306;23111;-59
2022/12/23 23:30:37;;;;;;;75.30;43.20;;;;;;;2.28;91.18;98950.33;106282;1307;138209;-60
2022/12/23 23:33:05;;;;;;;72.90;40.20;;;;;;;2.27;91.25;98947.40;106407;1306;22155;-60
2022/12/23 23:35:32;;;;;;;83.70;42.30;;;;;;;2.24;91.11;98945.27;106320;1308;138370;-60
2022/12/23 23:37:59;;;;;;;78.50;42.40;;;;;;;2.22;91.16;98946.19;106459;1308;22515;-60
2022/12/23 23:40:25;;;;;;;79.90;42.00;;;;;;;2.21;91.12;98946.81;106411;1308;22194;-60
2022/12/23 23:42:52;;;;;;;77.40;39.90;;;;;;;2.20;91.13;98949.67;106440;1300;22327;-60
2022/12/23 23:45:19;;;;;;;82.70;42.00;;;;;;;2.20;91.37;98947.64;106423;1308;23276;-60
2022/12/23 23:47:46;;;;;;;75.10;38.40;;;;;;;2.21;91.34;98946.61;106316;1300;137979;-60
2022/12/23 23:50:12;;;;;;;81.00;40.00;;;;;;;2.23;91.37;98941.63;106398;1308;22130;-60
2022/12/23 23:52:39;;;;;;;89.70;44.60;;;;;;;2.25;91.44;98938.61;106347;1307;138552;-60
2022/12/23 23:55:06;;;;;;;90.30;43.40;;;;;;;2.25;91.38;98930.38;106400;1308;22219;-60
2022/12/23 23:57:33;;;;;;;87.30;43.70;;;;;;;2.24;91.30;98927.89;106415;1307;22298;-60
